Time;durP1;ratioP1;P1;durP2;ratioP2;P2;SDS_P1;SDS_P2;PMS_P1;PMS_P2;Temp;Humidity;BMP_temperature;BMP_pressure;BME280_temperature;BME280_humidity;BME280_pressure;Samples;Min_cycle;Max_cycle;Signal;HPM_P1;HPM_P2
2021/03/07 00:00:22;;;;;;;2.28;1.30;;;23.10;42.50;;;;;;5003619;28;20068;-69
2021/03/07 00:02:49;;;;;;;1.88;1.33;;;23.10;42.50;;;;;;4998176;28;20022;-66
2021/03/07 00:05:15;;;;;;;1.83;1.17;;;23.10;42.50;;;;;;5005867;28;20164;-66
2021/03/07 00:07:42;;;;;;;2.78;1.42;;;23.00;42.40;;;;;;5006847;28;20033;-68
2021/03/07 00:10:10;;;;;;;1.90;1.10;;;23.00;42.40;;;;;;5006303;28;20029;-66
2021/03/07 00:12:37;;;;;;;2.13;1.30;;;23.00;42.40;;;;;;5006801;28;20038;-68
2021/03/07 00:15:08;;;;;;;2.20;1.17;;;23.00;42.50;;;;;;5005787;28;20034;-67
2021/03/07 00:17:35;;;;;;;1.88;1.25;;;23.00;42.50;;;;;;5005099;28;20033;-70
2021/03/07 00:20:01;;;;;;;1.40;0.98;;;22.90;42.40;;;;;;4994093;28;20418;-67
2021/03/07 00:22:27;;;;;;;1.85;1.20;;;22.90;42.40;;;;;;5002854;28;20493;-67
2021/03/07 00:24:53;;;;;;;2.17;1.30;;;22.90;42.50;;;;;;5005627;28;20034;-67
2021/03/07 00:27:19;;;;;;;1.88;1.20;;;22.80;42.40;;;;;;5007381;28;20152;-68
2021/03/07 00:29:45;;;;;;;2.35;1.23;;;22.80;42.40;;;;;;5001520;28;20175;-68
2021/03/07 00:32:11;;;;;;;1.73;1.10;;;22.80;42.40;;;;;;5002621;28;20088;-70
2021/03/07 00:34:37;;;;;;;1.45;1.13;;;22.80;42.40;;;;;;5003981;28;20544;-68
2021/03/07 00:37:02;;;;;;;2.10;1.20;;;22.70;42.40;;;;;;5004934;28;20042;-65
2021/03/07 00:39:30;;;;;;;1.73;1.20;;;22.70;42.40;;;;;;5005378;28;20124;-65
2021/03/07 00:41:58;;;;;;;1.83;1.10;;;22.70;42.50;;;;;;5001525;28;20026;-69
2021/03/07 00:44:24;;;;;;;2.28;1.40;;;22.70;42.60;;;;;;5000667;28;20030;-66
2021/03/07 00:46:50;;;;;;;1.55;0.98;;;22.60;42.50;;;;;;5003043;28;20086;-67
2021/03/07 00:49:19;;;;;;;1.88;1.10;;;22.70;42.60;;;;;;5003886;28;20068;-71
2021/03/07 00:51:44;;;;;;;1.67;1.10;;;22.60;42.50;;;;;;5003187;28;20022;-66
2021/03/07 00:54:10;;;;;;;1.30;1.05;;;22.60;42.60;;;;;;4994290;28;20035;-68
2021/03/07 00:56:36;;;;;;;1.92;1.13;;;22.60;42.60;;;;;;5000215;28;20088;-66
2021/03/07 00:59:01;;;;;;;1.60;1.05;;;22.50;42.50;;;;;;5003548;28;20038;-68
2021/03/07 01:01:27;;;;;;;1.77;1.20;;;22.50;42.60;;;;;;5004873;28;20849;-66
2021/03/07 01:03:53;;;;;;;1.33;1.00;;;22.50;42.60;;;;;;5007033;28;20041;-66
2021/03/07 01:06:19;;;;;;;1.52;1.20;;;22.40;43.10;;;;;;5003435;28;20057;-69
2021/03/07 01:08:44;;;;;;;1.33;1.00;;;22.40;42.60;;;;;;5001906;28;20038;-69
2021/03/07 01:11:10;;;;;;;1.85;1.20;;;22.40;42.60;;;;;;5003103;28;20034;-67
2021/03/07 01:13:36;;;;;;;2.28;1.10;;;22.40;42.70;;;;;;5006760;28;20056;-67
2021/03/07 01:16:02;;;;;;;1.90;1.10;;;22.40;42.70;;;;;;5008209;28;20030;-69
2021/03/07 01:18:28;;;;;;;2.35;1.20;;;22.40;42.80;;;;;;5009664;28;20045;-67
2021/03/07 01:20:53;;;;;;;1.73;1.23;;;22.40;42.70;;;;;;5010344;28;20055;-66
2021/03/07 01:23:21;;;;;;;1.52;1.10;;;22.30;42.70;;;;;;5008198;28;20061;-66
2021/03/07 01:25:47;;;;;;;2.15;1.17;;;22.30;42.80;;;;;;5007323;28;20034;-68
2021/03/07 01:28:13;;;;;;;1.90;1.20;;;22.30;42.80;;;;;;5007642;28;20468;-65
2021/03/07 01:30:40;;;;;;;1.42;1.00;;;22.30;42.80;;;;;;5008098;28;20229;-66
2021/03/07 01:33:07;;;;;;;1.60;1.10;;;22.20;42.70;;;;;;5008903;28;20029;-65
2021/03/07 01:35:33;;;;;;;1.77;1.10;;;22.20;42.70;;;;;;5008277;28;20124;-64
2021/03/07 01:37:59;;;;;;;1.98;1.30;;;22.20;42.80;;;;;;5007550;28;20030;-65
2021/03/07 01:40:30;;;;;;;1.90;1.23;;;22.20;42.80;;;;;;4998364;28;20046;-64
2021/03/07 01:42:57;;;;;;;1.35;1.00;;;22.20;42.80;;;;;;5008890;28;20033;-68
2021/03/07 01:45:26;;;;;;;1.60;1.00;;;22.20;42.80;;;;;;5009030;28;20034;-65
2021/03/07 01:47:55;;;;;;;1.58;1.08;;;22.10;42.80;;;;;;5009605;28;20534;-66
2021/03/07 01:50:26;;;;;;;1.45;1.00;;;22.10;42.80;;;;;;5007740;28;20736;-66
2021/03/07 01:52:52;;;;;;;2.42;1.10;;;22.10;42.80;;;;;;5005620;28;20539;-69
2021/03/07 01:55:19;;;;;;;1.55;1.10;;;22.10;42.80;;;;;;5004254;28;20023;-67
2021/03/07 01:57:47;;;;;;;1.20;1.00;;;22.00;42.80;;;;;;4997779;28;20092;-66
2021/03/07 02:00:15;;;;;;;1.50;1.13;;;22.10;42.90;;;;;;5008240;28;20030;-66
2021/03/07 02:02:41;;;;;;;1.45;1.08;;;22.00;42.90;;;;;;5008696;28;20460;-65
2021/03/07 02:05:09;;;;;;;1.67;1.00;;;22.00;42.90;;;;;;5006331;28;20030;-70
2021/03/07 02:07:35;;;;;;;2.05;1.10;;;22.00;42.90;;;;;;5007847;28;20021;-66
2021/03/07 02:10:01;;;;;;;1.55;1.00;;;22.00;42.90;;;;;;5007204;28;20030;-68
2021/03/07 02:12:27;;;;;;;1.52;1.10;;;22.00;42.90;;;;;;5007415;28;20105;-65
2021/03/07 02:14:54;;;;;;;1.92;1.10;;;21.90;42.90;;;;;;5006010;28;20096;-65
2021/03/07 02:17:21;;;;;;;1.40;1.00;;;21.90;42.90;;;;;;5009952;28;20029;-66
2021/03/07 02:19:48;;;;;;;1.70;1.10;;;21.90;42.90;;;;;;4994567;28;20549;-66
2021/03/07 02:22:37;;;;;;;1.63;1.10;;;21.90;42.90;;;;;;5007564;28;20034;-65
2021/03/07 02:25:08;;;;;;;1.35;0.93;;;21.90;42.90;;;;;;5001714;28;20046;-64
2021/03/07 02:27:35;;;;;;;1.88;1.02;;;21.80;42.90;;;;;;5002281;28;20030;-65
2021/03/07 02:30:02;;;;;;;1.25;0.90;;;21.80;42.90;;;;;;5008219;28;20075;-67
2021/03/07 02:32:30;;;;;;;1.85;1.10;;;21.90;43.00;;;;;;5016059;28;20037;-68
2021/03/07 02:35:05;;;;;;;1.27;1.00;;;21.80;42.90;;;;;;5005878;28;20030;-70
2021/03/07 02:37:32;;;;;;;2.70;1.10;;;21.80;42.90;;;;;;5005827;28;20036;-66
2021/03/07 02:39:59;;;;;;;1.10;0.80;;;21.80;43.00;;;;;;5007758;28;20069;-66
2021/03/07 02:42:30;;;;;;;1.75;1.27;;;21.70;42.90;;;;;;5007359;28;20405;-64
2021/03/07 02:45:00;;;;;;;1.35;0.95;;;21.80;43.00;;;;;;5007556;28;20021;-66
2021/03/07 02:47:29;;;;;;;1.33;1.00;;;21.70;43.00;;;;;;5000816;28;20139;-66
2021/03/07 02:49:58;;;;;;;1.80;1.10;;;21.70;43.00;;;;;;5001558;28;20362;-65
2021/03/07 02:52:24;;;;;;;1.95;1.20;;;21.70;43.00;;;;;;5007088;28;20056;-65
2021/03/07 02:54:51;;;;;;;1.00;0.90;;;21.70;43.00;;;;;;4999884;28;20030;-65
2021/03/07 02:57:19;;;;;;;1.23;1.00;;;21.70;43.00;;;;;;5006179;28;20041;-64
2021/03/07 02:59:46;;;;;;;1.30;0.90;;;21.70;43.00;;;;;;5007971;28;20140;-65
2021/03/07 03:02:12;;;;;;;1.50;1.00;;;21.60;43.00;;;;;;5004456;28;20449;-65
2021/03/07 03:04:40;;;;;;;1.50;0.98;;;21.70;43.00;;;;;;5005310;28;20030;-67
2021/03/07 03:07:08;;;;;;;1.80;1.23;;;21.70;43.10;;;;;;5007003;28;20026;-66
2021/03/07 03:09:35;;;;;;;1.75;1.10;;;21.60;43.00;;;;;;5007742;28;20059;-65
2021/03/07 03:12:02;;;;;;;1.48;0.90;;;21.60;43.10;;;;;;5007695;28;20029;-65
2021/03/07 03:14:28;;;;;;;1.45;1.00;;;21.60;43.00;;;;;;5005934;28;20433;-64
2021/03/07 03:16:57;;;;;;;1.27;0.82;;;21.60;43.00;;;;;;5001635;28;20053;-66
2021/03/07 03:19:25;;;;;;;0.95;0.82;;;21.60;43.10;;;;;;5000662;28;20385;-67
2021/03/07 03:21:52;;;;;;;1.17;0.90;;;21.60;43.10;;;;;;5002343;28;20065;-67
2021/03/07 03:24:19;;;;;;;1.55;1.00;;;21.50;43.10;;;;;;5006334;28;20026;-66
2021/03/07 03:26:44;;;;;;;1.20;0.90;;;21.50;43.10;;;;;;5005469;28;20025;-66
2021/03/07 03:29:10;;;;;;;1.98;1.30;;;21.50;43.10;;;;;;5005428;28;20025;-66
2021/03/07 03:31:36;;;;;;;1.58;1.10;;;21.50;43.10;;;;;;5006073;28;20126;-65
2021/03/07 03:34:05;;;;;;;1.25;0.90;;;21.50;43.10;;;;;;5010207;28;20026;-66
2021/03/07 03:36:32;;;;;;;1.00;0.80;;;21.50;43.10;;;;;;5004925;28;20057;-66
2021/03/07 03:39:02;;;;;;;1.48;1.00;;;21.50;43.10;;;;;;5006370;28;20437;-65
2021/03/07 03:41:33;;;;;;;1.60;1.00;;;21.50;43.10;;;;;;4995239;28;20022;-66
2021/03/07 03:44:03;;;;;;;1.17;0.80;;;21.40;43.10;;;;;;5006899;28;20041;-67
2021/03/07 03:46:32;;;;;;;1.65;1.08;;;21.40;43.20;;;;;;5005069;28;20049;-65
2021/03/07 03:49:03;;;;;;;1.45;1.00;;;21.40;43.10;;;;;;5017369;28;20026;-65
2021/03/07 03:51:33;;;;;;;1.20;0.80;;;21.40;43.10;;;;;;5005553;28;20101;-67
2021/03/07 03:54:01;;;;;;;1.20;0.80;;;21.40;43.20;;;;;;5006318;28;20512;-65
2021/03/07 03:56:27;;;;;;;1.42;1.00;;;21.40;43.20;;;;;;5002326;28;20022;-66
2021/03/07 03:58:55;;;;;;;1.13;0.80;;;21.40;43.20;;;;;;5003598;28;20045;-66
2021/03/07 04:01:22;;;;;;;1.67;1.10;;;21.40;43.20;;;;;;5004879;28;20152;-66
2021/03/07 04:03:51;;;;;;;1.50;1.00;;;21.40;43.30;;;;;;5006463;28;20449;-67
2021/03/07 04:06:22;;;;;;;1.02;0.90;;;21.40;43.30;;;;;;5005791;28;20041;-65
2021/03/07 04:08:48;;;;;;;1.40;1.00;;;21.30;43.20;;;;;;5006013;28;20022;-69
2021/03/07 04:11:14;;;;;;;1.10;0.90;;;21.40;43.30;;;;;;5006256;28;20034;-66
2021/03/07 04:13:40;;;;;;;1.38;0.90;;;21.30;43.30;;;;;;5002181;28;20049;-65
2021/03/07 04:16:06;;;;;;;1.00;0.90;;;21.30;43.20;;;;;;5006583;28;20030;-71
2021/03/07 04:18:32;;;;;;;1.02;0.88;;;21.30;43.20;;;;;;4998479;28;20124;-69
2021/03/07 04:21:00;;;;;;;1.63;0.90;;;21.30;43.30;;;;;;5001422;28;20126;-66
2021/03/07 04:23:26;;;;;;;1.30;1.00;;;21.30;43.30;;;;;;5003072;28;20030;-65
2021/03/07 04:25:52;;;;;;;1.17;0.88;;;21.30;43.30;;;;;;5006205;28;20038;-68
2021/03/07 04:28:18;;;;;;;1.20;0.85;;;21.30;43.30;;;;;;5004863;28;20327;-65
2021/03/07 04:30:44;;;;;;;1.00;0.80;;;21.30;43.30;;;;;;5005361;28;20110;-66
2021/03/07 04:33:10;;;;;;;1.20;0.90;;;21.30;43.30;;;;;;5007306;28;20131;-70
2021/03/07 04:35:38;;;;;;;1.33;0.90;;;21.30;43.30;;;;;;5004337;28;20428;-69
2021/03/07 04:38:05;;;;;;;1.27;0.82;;;21.30;43.30;;;;;;5004377;28;20093;-67
2021/03/07 04:40:32;;;;;;;1.38;0.90;;;21.20;43.30;;;;;;5005293;28;20041;-67
2021/03/07 04:42:58;;;;;;;1.27;0.70;;;21.30;43.40;;;;;;5002035;28;20113;-66
2021/03/07 04:45:24;;;;;;;1.30;0.90;;;21.20;43.30;;;;;;5006468;28;20089;-65
2021/03/07 04:47:50;;;;;;;1.30;1.00;;;21.20;43.30;;;;;;5002724;28;20041;-65
2021/03/07 04:50:16;;;;;;;1.05;0.77;;;21.20;43.30;;;;;;5010484;28;20030;-66
2021/03/07 04:52:42;;;;;;;1.20;0.82;;;21.30;43.40;;;;;;5009499;28;20362;-68
2021/03/07 04:55:09;;;;;;;1.00;0.80;;;21.20;43.30;;;;;;5007196;28;20145;-66
2021/03/07 04:57:35;;;;;;;1.02;0.80;;;21.20;43.30;;;;;;5009306;28;20017;-66
2021/03/07 05:00:04;;;;;;;1.17;0.85;;;21.20;43.30;;;;;;5010347;28;20353;-66
2021/03/07 05:02:30;;;;;;;1.30;0.90;;;21.20;43.30;;;;;;5008334;28;20543;-66
2021/03/07 05:04:55;;;;;;;1.17;0.80;;;21.20;43.30;;;;;;5010493;28;20101;-66
2021/03/07 05:07:21;;;;;;;1.70;1.00;;;21.20;43.40;;;;;;5009749;28;20119;-66
2021/03/07 05:09:46;;;;;;;1.13;0.85;;;21.20;43.30;;;;;;5009031;28;20045;-66
2021/03/07 05:12:12;;;;;;;1.30;0.90;;;21.20;43.40;;;;;;5009528;28;20404;-68
2021/03/07 05:14:38;;;;;;;1.02;0.75;;;21.20;43.40;;;;;;5005868;28;20026;-65
2021/03/07 05:17:03;;;;;;;0.95;0.80;;;21.20;43.40;;;;;;5010235;28;20026;-65
2021/03/07 05:19:41;;;;;;;1.02;0.90;;;21.20;43.40;;;;;;5008177;28;20162;-67
2021/03/07 05:22:06;;;;;;;1.42;0.90;;;21.20;43.40;;;;;;5009208;28;20106;-66
2021/03/07 05:24:32;;;;;;;1.13;0.90;;;21.10;43.40;;;;;;5009162;28;20116;-66
2021/03/07 05:27:05;;;;;;;1.85;1.00;;;21.10;43.40;;;;;;5010769;28;20030;-67
2021/03/07 05:29:35;;;;;;;1.00;0.85;;;21.10;43.40;;;;;;5006226;28;20649;-64
2021/03/07 05:32:01;;;;;;;1.58;1.00;;;21.10;43.40;;;;;;5009066;28;20045;-66
2021/03/07 05:34:27;;;;;;;1.42;0.90;;;21.10;43.40;;;;;;5009707;28;20022;-66
2021/03/07 05:36:53;;;;;;;1.35;0.93;;;21.10;43.40;;;;;;5006849;28;20040;-65
2021/03/07 05:39:19;;;;;;;1.45;0.90;;;21.10;43.40;;;;;;5001069;28;20034;-66
2021/03/07 05:41:44;;;;;;;0.98;0.80;;;21.10;43.40;;;;;;5020526;28;20756;-65
2021/03/07 05:44:11;;;;;;;0.95;0.77;;;21.10;43.40;;;;;;5007119;28;20041;-68
2021/03/07 05:46:38;;;;;;;0.98;0.80;;;21.10;43.40;;;;;;5006640;28;20113;-70
2021/03/07 05:49:04;;;;;;;1.13;0.90;;;21.10;43.40;;;;;;5002388;28;20030;-66
2021/03/07 05:51:30;;;;;;;1.10;0.80;;;21.10;43.40;;;;;;5007640;28;20030;-65
2021/03/07 05:53:56;;;;;;;0.80;0.70;;;21.10;43.40;;;;;;5008992;28;20088;-71
2021/03/07 05:56:22;;;;;;;0.73;0.63;;;21.10;43.50;;;;;;5005996;28;20026;-65
2021/03/07 05:58:50;;;;;;;0.85;0.70;;;21.10;43.40;;;;;;5006959;28;20041;-67
2021/03/07 06:01:17;;;;;;;0.98;0.80;;;21.10;43.50;;;;;;5008931;28;20124;-65
2021/03/07 06:03:42;;;;;;;1.00;0.77;;;21.10;43.50;;;;;;5008214;28;20449;-68
2021/03/07 06:06:09;;;;;;;1.25;0.80;;;21.00;43.40;;;;;;5002588;28;20103;-67
2021/03/07 06:08:34;;;;;;;1.10;0.90;;;21.00;43.40;;;;;;5006039;28;20121;-66
2021/03/07 06:11:00;;;;;;;0.70;0.70;;;21.00;43.40;;;;;;5008533;28;20112;-66
2021/03/07 06:13:40;;;;;;;0.88;0.80;;;21.00;44.00;;;;;;5004708;28;20421;-68
2021/03/07 06:16:08;;;;;;;0.90;0.80;;;21.00;43.40;;;;;;5006311;28;20026;-65
2021/03/07 06:18:42;;;;;;;0.80;0.70;;;21.00;43.50;;;;;;5004038;28;20349;-65
2021/03/07 06:21:27;;;;;;;1.00;0.80;;;21.00;43.50;;;;;;5005440;28;20115;-65
2021/03/07 06:23:53;;;;;;;0.82;0.68;;;21.00;43.50;;;;;;5006762;28;20461;-66
2021/03/07 06:26:19;;;;;;;1.20;0.80;;;21.00;43.50;;;;;;4999325;28;20031;-67
2021/03/07 06:28:45;;;;;;;1.30;0.85;;;21.00;43.50;;;;;;4999440;28;20092;-68
2021/03/07 06:31:30;;;;;;;0.80;0.70;;;20.90;43.40;;;;;;5008097;28;20030;-66
2021/03/07 06:33:57;;;;;;;1.20;0.90;;;21.00;43.60;;;;;;5006891;28;20030;-64
2021/03/07 06:36:24;;;;;;;0.95;0.75;;;20.90;43.50;;;;;;5006464;28;20040;-68
2021/03/07 06:38:52;;;;;;;0.93;0.80;;;21.00;43.60;;;;;;5001651;28;20105;-66
2021/03/07 06:41:23;;;;;;;1.13;0.80;;;20.90;43.50;;;;;;5004954;28;20361;-69
2021/03/07 06:43:50;;;;;;;1.25;0.90;;;20.90;43.50;;;;;;5020132;28;20800;-67
2021/03/07 06:46:34;;;;;;;1.00;0.80;;;20.90;43.50;;;;;;5007665;28;20160;-66
2021/03/07 06:49:01;;;;;;;1.13;0.80;;;20.90;43.50;;;;;;5001782;28;20026;-70
2021/03/07 06:51:28;;;;;;;1.08;0.80;;;20.90;43.50;;;;;;5008237;28;20034;-67
2021/03/07 06:53:55;;;;;;;0.95;0.70;;;20.90;43.50;;;;;;5007365;28;20060;-65
2021/03/07 06:56:59;;;;;;;1.35;0.98;;;20.90;43.50;;;;;;5007199;28;20369;-70
2021/03/07 06:59:24;;;;;;;0.85;0.70;;;20.90;43.60;;;;;;4941368;29;20050;-65
2021/03/07 07:01:55;;;;;;;1.33;0.70;;;20.90;43.50;;;;;;4924084;29;20043;-65
2021/03/07 07:04:21;;;;;;;1.30;0.90;;;20.90;43.60;;;;;;4974667;28;20049;-66
2021/03/07 07:07:01;;;;;;;1.15;0.80;;;20.90;43.60;;;;;;5001041;28;20022;-68
2021/03/07 07:09:27;;;;;;;0.98;0.80;;;20.90;43.60;;;;;;5007584;28;20038;-67
2021/03/07 07:11:54;;;;;;;0.98;0.73;;;20.90;43.60;;;;;;5006354;28;20109;-66
2021/03/07 07:14:42;;;;;;;0.80;0.80;;;20.90;43.60;;;;;;5006630;28;20168;-66
2021/03/07 07:17:10;;;;;;;1.63;0.70;;;20.90;43.60;;;;;;5007239;28;20030;-65
2021/03/07 07:19:38;;;;;;;0.80;0.70;;;20.90;43.60;;;;;;5006373;28;20052;-65
2021/03/07 07:22:05;;;;;;;1.75;0.80;;;20.90;43.70;;;;;;5007512;28;20395;-64
2021/03/07 07:24:31;;;;;;;1.23;0.90;;;20.90;43.70;;;;;;5004130;28;20026;-65
2021/03/07 07:26:57;;;;;;;1.20;0.77;;;20.90;43.70;;;;;;5008163;28;20030;-65
2021/03/07 07:29:24;;;;;;;1.15;0.80;;;20.90;43.70;;;;;;5006926;28;20592;-65
2021/03/07 07:32:20;;;;;;;1.13;0.80;;;20.80;43.70;;;;;;5005889;28;20099;-67
2021/03/07 07:34:51;;;;;;;1.58;0.90;;;20.90;43.70;;;;;;4997930;28;20061;-66
2021/03/07 07:37:44;;;;;;;1.08;0.80;;;20.90;43.80;;;;;;5017232;28;20033;-67
2021/03/07 07:40:11;;;;;;;1.15;0.80;;;20.90;44.30;;;;;;4998942;28;20045;-69
2021/03/07 07:42:37;;;;;;;1.13;0.88;;;20.80;43.80;;;;;;5004610;28;20038;-65
2021/03/07 07:45:12;;;;;;;1.05;0.90;;;20.80;43.80;;;;;;5004471;28;20149;-68
2021/03/07 07:47:56;;;;;;;0.77;0.75;;;20.80;43.90;;;;;;4999863;28;20046;-65
2021/03/07 07:50:37;;;;;;;1.00;0.80;;;20.80;43.90;;;;;;5014692;28;20150;-65
2021/03/07 07:53:26;;;;;;;1.20;0.82;;;20.80;43.90;;;;;;4996785;28;20028;-65
2021/03/07 07:55:53;;;;;;;;;;;20.80;43.90;;;;;;5007319;28;20076;-64
2021/03/07 07:58:37;;;;;;;1.20;0.70;;;20.80;43.90;;;;;;5006414;28;20273;-69
2021/03/07 08:01:03;;;;;;;0.77;0.70;;;20.80;44.00;;;;;;4996914;28;20087;-65
2021/03/07 08:03:51;;;;;;;1.23;0.90;;;20.80;44.00;;;;;;5001441;28;20026;-65
2021/03/07 08:06:22;;;;;;;0.90;0.70;;;20.80;44.50;;;;;;5005426;28;20049;-66
2021/03/07 08:08:48;;;;;;;2.50;0.80;;;20.80;44.00;;;;;;5007196;28;20034;-67
2021/03/07 08:11:23;;;;;;;1.25;0.82;;;20.80;44.00;;;;;;5007869;28;20044;-65
2021/03/07 08:13:52;;;;;;;1.83;0.90;;;20.80;44.10;;;;;;5003655;28;20054;-71
2021/03/07 08:16:42;;;;;;;1.00;0.80;;;20.80;44.10;;;;;;5003317;28;20499;-64
2021/03/07 08:19:09;;;;;;;;;;;20.70;44.10;;;;;;5007156;28;20034;-66
2021/03/07 08:21:59;;;;;;;0.98;0.70;;;20.70;44.10;;;;;;5006115;28;19928;-66
2021/03/07 08:24:45;;;;;;;1.02;0.70;;;20.70;44.10;;;;;;5009879;28;20037;-64
2021/03/07 08:27:29;;;;;;;2.33;0.80;;;20.70;44.10;;;;;;5010682;28;20108;-65
2021/03/07 08:29:55;;;;;;;1.42;0.80;;;20.70;44.10;;;;;;5003468;28;20030;-65
2021/03/07 08:32:31;;;;;;;1.58;0.80;;;20.70;44.10;;;;;;5012222;28;20030;-66
2021/03/07 08:34:59;;;;;;;1.00;0.80;;;20.70;44.10;;;;;;5010548;28;20356;-65
2021/03/07 08:37:26;;;;;;;1.42;0.90;;;20.70;44.10;;;;;;5009211;28;20022;-66
2021/03/07 08:40:26;;;;;;;1.95;0.85;;;20.70;44.10;;;;;;5007998;28;20139;-65
2021/03/07 08:42:51;;;;;;;1.70;0.88;;;20.70;44.00;;;;;;5008734;28;20057;-64
2021/03/07 08:45:21;;;;;;;1.60;0.90;;;20.70;43.90;;;;;;5006989;28;20065;-69
2021/03/07 08:47:55;;;;;;;1.27;0.80;;;20.70;43.90;;;;;;5010196;28;20145;-65
2021/03/07 08:50:22;;;;;;;2.33;0.98;;;20.70;43.80;;;;;;5005285;28;20026;-65
2021/03/07 08:52:48;;;;;;;1.42;0.90;;;20.70;43.80;;;;;;5009992;28;20037;-66
2021/03/07 08:55:14;;;;;;;1.83;1.10;;;20.70;43.80;;;;;;5004684;28;20037;-66
2021/03/07 08:57:48;;;;;;;1.75;0.98;;;20.70;43.80;;;;;;5012269;28;20589;-66
2021/03/07 09:00:18;;;;;;;1.63;1.00;;;20.70;43.80;;;;;;5005230;28;20052;-65
2021/03/07 09:02:45;;;;;;;2.05;1.10;;;20.70;43.80;;;;;;5005385;28;20053;-65
2021/03/07 09:05:27;;;;;;;2.70;1.30;;;20.70;43.80;;;;;;5009738;28;20088;-65
2021/03/07 09:08:01;;;;;;;3.85;1.52;;;20.70;43.80;;;;;;4995672;28;20507;-65
2021/03/07 09:10:36;;;;;;;3.65;1.38;;;20.70;44.30;;;;;;5020839;28;20077;-66
2021/03/07 09:13:20;;;;;;;3.00;1.38;;;20.70;43.90;;;;;;5007479;28;20026;-65
2021/03/07 09:15:55;;;;;;;3.67;1.60;;;20.70;43.90;;;;;;5010476;28;20045;-65
2021/03/07 09:18:23;;;;;;;4.70;1.50;;;20.70;43.90;;;;;;5011696;28;20029;-64
2021/03/07 09:20:52;;;;;;;5.23;1.73;;;20.70;43.90;;;;;;5008240;28;20034;-65
2021/03/07 09:23:26;;;;;;;5.25;2.38;;;20.70;44.00;;;;;;5010102;28;20117;-68
2021/03/07 09:25:52;;;;;;;3.78;1.80;;;20.70;44.00;;;;;;5006614;28;20038;-65
2021/03/07 09:28:51;;;;;;;4.22;2.00;;;20.70;44.00;;;;;;5009915;28;20036;-68
2021/03/07 09:31:19;;;;;;;4.20;2.08;;;20.70;44.10;;;;;;4999230;28;20061;-65
2021/03/07 09:33:53;;;;;;;4.43;1.90;;;20.70;44.10;;;;;;5008259;28;20040;-64
2021/03/07 09:36:21;;;;;;;5.18;2.00;;;20.70;44.20;;;;;;5009917;28;20030;-65
2021/03/07 09:38:49;;;;;;;5.22;2.00;;;20.70;44.20;;;;;;5009141;28;20104;-65
2021/03/07 09:41:26;;;;;;;3.50;2.00;;;20.70;44.30;;;;;;4998938;28;20176;-63
2021/03/07 09:43:53;;;;;;;6.13;2.60;;;20.70;44.40;;;;;;5003115;28;20026;-62
2021/03/07 09:46:20;;;;;;;5.75;2.42;;;20.80;44.90;;;;;;5005902;28;20030;-63
2021/03/07 09:48:48;;;;;;;6.15;2.90;;;20.90;45.00;;;;;;5005291;28;20041;-63
2021/03/07 09:51:15;;;;;;;5.88;2.67;;;21.00;45.00;;;;;;5004370;28;20026;-65
2021/03/07 09:53:42;;;;;;;6.68;2.72;;;21.10;44.80;;;;;;5005470;28;20034;-63
2021/03/07 09:56:34;;;;;;;5.60;2.95;;;21.30;44.70;;;;;;5007285;28;20044;-65
2021/03/07 09:59:21;;;;;;;6.13;2.60;;;21.50;44.30;;;;;;5005478;28;20034;-63
2021/03/07 10:01:57;;;;;;;6.25;2.80;;;21.60;44.10;;;;;;4996797;28;20038;-65
2021/03/07 10:04:45;;;;;;;6.88;3.38;;;21.70;43.90;;;;;;5004716;28;20049;-65
2021/03/07 10:07:25;;;;;;;7.32;2.72;;;21.90;43.60;;;;;;5001775;28;20026;-63
2021/03/07 10:10:08;;;;;;;4.78;2.70;;;21.90;43.60;;;;;;5001773;28;20389;-61
2021/03/07 10:12:54;;;;;;;6.93;3.00;;;22.10;43.50;;;;;;5005245;28;20091;-61
2021/03/07 10:15:39;;;;;;;5.70;3.15;;;22.20;43.30;;;;;;4999966;28;20471;-64
2021/03/07 10:18:18;;;;;;;5.82;3.00;;;22.30;43.10;;;;;;5007476;28;20112;-63
2021/03/07 10:20:49;;;;;;;6.35;3.10;;;22.40;43.00;;;;;;5005422;28;20551;-62
2021/03/07 10:23:16;;;;;;;6.15;3.00;;;22.50;43.00;;;;;;5004689;28;20029;-62
2021/03/07 10:25:48;;;;;;;5.93;3.30;;;22.60;43.00;;;;;;5002779;28;20033;-66
2021/03/07 10:28:29;;;;;;;6.22;2.72;;;22.60;42.90;;;;;;4999577;28;20034;-65
2021/03/07 10:31:25;;;;;;;4.55;2.55;;;22.60;42.80;;;;;;5002541;28;20350;-70
2021/03/07 10:33:54;;;;;;;7.35;2.60;;;22.60;42.90;;;;;;5003148;28;20037;-67
2021/03/07 10:36:23;;;;;;;4.78;2.40;;;22.50;43.00;;;;;;5000885;28;20045;-67
2021/03/07 10:38:51;;;;;;;5.50;2.83;;;22.50;43.30;;;;;;5000786;28;20338;-67
2021/03/07 10:41:32;;;;;;;6.03;2.95;;;22.50;43.10;;;;;;5002157;28;20504;-67
2021/03/07 10:44:00;;;;;;;5.35;2.70;;;22.50;43.10;;;;;;5005405;28;20038;-66
2021/03/07 10:46:27;;;;;;;5.43;2.60;;;22.50;43.20;;;;;;5002462;28;20061;-65
2021/03/07 10:48:58;;;;;;;4.72;2.72;;;22.50;43.20;;;;;;5001907;28;20146;-66
2021/03/07 10:51:25;;;;;;;4.63;2.70;;;22.50;43.20;;;;;;4997481;28;20492;-65
2021/03/07 10:53:52;;;;;;;5.00;2.70;;;22.50;43.20;;;;;;5002465;28;20393;-69
2021/03/07 10:56:19;;;;;;;5.30;2.53;;;22.50;43.20;;;;;;5003286;28;20045;-65
2021/03/07 10:58:47;;;;;;;5.57;2.80;;;22.50;43.20;;;;;;5001877;28;20689;-66
2021/03/07 11:01:16;;;;;;;6.80;2.40;;;22.50;43.20;;;;;;5003913;28;20040;-69
2021/03/07 11:03:44;;;;;;;5.18;2.42;;;22.50;43.20;;;;;;4997095;28;20033;-69
2021/03/07 11:06:10;;;;;;;5.90;2.65;;;22.50;43.20;;;;;;5003280;28;20030;-67
2021/03/07 11:08:37;;;;;;;4.97;2.42;;;22.50;43.20;;;;;;5005607;28;20082;-67
2021/03/07 11:11:04;;;;;;;4.18;2.40;;;22.50;43.20;;;;;;4999428;28;20022;-66
2021/03/07 11:13:30;;;;;;;5.80;2.28;;;22.50;43.20;;;;;;5002975;28;20041;-70
2021/03/07 11:15:56;;;;;;;4.80;2.38;;;22.50;43.20;;;;;;5005770;28;20109;-66
2021/03/07 11:18:22;;;;;;;3.97;2.33;;;22.50;43.30;;;;;;4997312;28;20404;-66
2021/03/07 11:20:48;;;;;;;4.63;2.30;;;22.50;43.30;;;;;;5001345;28;20040;-68
2021/03/07 11:23:14;;;;;;;5.25;2.58;;;22.50;43.40;;;;;;5005603;28;20095;-67
2021/03/07 11:25:40;;;;;;;4.72;2.35;;;22.50;43.40;;;;;;5004641;28;20061;-69
2021/03/07 11:28:05;;;;;;;4.32;2.17;;;22.50;43.50;;;;;;5002945;28;20057;-67
2021/03/07 11:30:31;;;;;;;4.63;2.42;;;22.50;43.50;;;;;;5002334;28;20038;-66
2021/03/07 11:32:57;;;;;;;4.60;2.40;;;22.50;43.60;;;;;;5005525;28;20500;-65
2021/03/07 11:35:23;;;;;;;4.22;2.40;;;22.50;43.70;;;;;;5003960;28;20032;-62
2021/03/07 11:37:49;;;;;;;4.45;2.10;;;22.50;43.80;;;;;;5003418;28;20080;-61
2021/03/07 11:40:14;;;;;;;5.07;2.35;;;22.50;44.00;;;;;;5003778;28;20042;-64
2021/03/07 11:42:40;;;;;;;5.15;2.40;;;22.50;44.00;;;;;;5002795;28;20085;-61
2021/03/07 11:45:06;;;;;;;4.60;2.35;;;22.60;44.00;;;;;;5003292;28;20131;-62
2021/03/07 11:47:32;;;;;;;5.50;2.70;;;22.60;44.00;;;;;;5002893;28;20508;-65
2021/03/07 11:49:57;;;;;;;6.07;2.85;;;22.60;44.10;;;;;;5005111;28;20029;-63
2021/03/07 11:52:23;;;;;;;4.60;2.65;;;22.60;44.10;;;;;;4989561;28;20044;-64
2021/03/07 11:54:49;;;;;;;4.50;2.33;;;22.60;44.10;;;;;;5002582;28;20022;-64
2021/03/07 11:57:14;;;;;;;6.85;2.80;;;22.60;44.00;;;;;;4994950;28;20030;-60
2021/03/07 11:59:40;;;;;;;4.85;2.63;;;22.60;44.00;;;;;;4996168;28;20029;-61
2021/03/07 12:02:06;;;;;;;4.50;2.20;;;22.60;44.10;;;;;;4996497;28;20129;-63
2021/03/07 12:04:32;;;;;;;6.40;2.50;;;22.70;44.10;;;;;;5002930;28;20488;-64
2021/03/07 12:06:57;;;;;;;4.88;2.50;;;22.70;44.00;;;;;;5003498;28;20107;-60
2021/03/07 12:09:23;;;;;;;3.45;2.40;;;22.70;44.00;;;;;;5005838;28;20041;-67
2021/03/07 12:11:49;;;;;;;4.28;2.30;;;22.70;44.00;;;;;;5004145;28;20124;-63
2021/03/07 12:14:14;;;;;;;4.28;2.55;;;22.70;43.90;;;;;;4998671;28;20041;-65
2021/03/07 12:16:40;;;;;;;4.47;2.40;;;22.70;44.00;;;;;;5003907;28;20033;-66
2021/03/07 12:19:06;;;;;;;4.80;2.67;;;22.70;44.00;;;;;;5001507;28;20037;-61
2021/03/07 12:21:32;;;;;;;7.45;2.33;;;22.80;44.00;;;;;;5002785;28;20033;-64
2021/03/07 12:23:57;;;;;;;5.05;2.40;;;22.80;44.10;;;;;;5002846;28;20026;-61
2021/03/07 12:26:23;;;;;;;4.10;2.30;;;22.80;44.00;;;;;;4991410;28;20061;-63
2021/03/07 12:28:49;;;;;;;3.83;2.13;;;22.80;44.00;;;;;;4990827;28;20041;-66
2021/03/07 12:31:15;;;;;;;3.60;2.20;;;22.80;43.90;;;;;;4996546;28;20401;-66
2021/03/07 12:33:40;;;;;;;4.65;2.15;;;22.80;43.80;;;;;;4998249;28;20053;-65
2021/03/07 12:36:06;;;;;;;5.47;2.40;;;22.80;43.80;;;;;;5001661;28;20121;-66
2021/03/07 12:38:32;;;;;;;4.22;2.47;;;22.80;43.70;;;;;;4997421;28;20041;-65
2021/03/07 12:40:57;;;;;;;4.57;2.22;;;22.80;43.70;;;;;;4998661;28;20038;-65
2021/03/07 12:43:23;;;;;;;4.28;2.17;;;22.80;43.70;;;;;;4999698;28;20041;-67
2021/03/07 12:45:49;;;;;;;4.75;2.17;;;22.80;43.70;;;;;;5001746;28;20364;-65
2021/03/07 12:48:14;;;;;;;3.60;2.20;;;22.80;43.60;;;;;;4999125;28;20032;-65
2021/03/07 12:50:40;;;;;;;4.18;1.98;;;22.80;43.70;;;;;;5001719;28;20105;-66
2021/03/07 12:53:06;;;;;;;7.28;2.53;;;22.80;43.60;;;;;;4999490;28;20117;-66
2021/03/07 12:55:32;;;;;;;4.75;2.00;;;22.80;43.60;;;;;;5001118;28;20034;-66
2021/03/07 12:57:58;;;;;;;3.30;1.90;;;22.80;43.60;;;;;;5000901;28;20034;-64